Time;durP1;ratioP1;P1;durP2;ratioP2;P2;SDS_P1;SDS_P2;PMS_P1;PMS_P2;Temp;Humidity;BMP_temperature;BMP_pressure;BME280_temperature;BME280_humidity;BME280_pressure;Samples;Min_cycle;Max_cycle;Signal;HPM_P1;HPM_P2
2021/12/14 00:01:19;;;;;;;63.83;30.30;;;;;;;3.74;89.14;101661.44;1789313;80;21019;-75
2021/12/14 00:03:51;;;;;;;53.30;27.70;;;;;;;3.74;89.11;101656.25;1788217;80;21032;-75
2021/12/14 00:06:21;;;;;;;54.83;28.90;;;;;;;3.74;89.00;101656.25;1789137;80;21026;-75
2021/12/14 00:08:56;;;;;;;58.98;30.32;;;;;;;3.71;89.08;101662.67;1789630;80;21085;-75
2021/12/14 00:14:14;;;;;;;53.20;29.73;;;;;;;3.69;89.41;101665.70;1789298;80;21027;-74
2021/12/14 00:16:28;;;;;;;45.70;25.43;;;;;;;3.69;89.31;101663.53;1786072;80;21008;-75
2021/12/14 00:18:55;;;;;;;51.83;24.93;;;;;;;3.68;89.26;101667.83;1789587;80;21600;-75
2021/12/14 00:21:30;;;;;;;47.17;24.40;;;;;;;3.67;88.94;101670.42;1789197;80;21124;-75
2021/12/14 00:24:07;;;;;;;53.60;25.60;;;;;;;3.66;89.05;101673.45;1789209;80;21044;-77
2021/12/14 00:26:45;;;;;;;59.63;30.40;;;;;;;3.67;89.17;101673.87;1789421;80;21023;-75
2021/12/14 00:29:23;;;;;;;64.93;29.63;;;;;;;3.69;89.22;101667.42;1789477;80;21012;-76
2021/12/14 00:31:56;;;;;;;56.77;28.00;;;;;;;3.73;89.31;101667.45;1788276;80;21043;-75
2021/12/14 00:34:35;;;;;;;57.50;28.50;;;;;;;3.73;89.16;101660.98;1787102;80;21071;-75
2021/12/14 00:36:53;;;;;;;54.17;27.40;;;;;;;3.73;89.06;101658.38;1785265;80;21486;-75
2021/12/14 00:39:20;;;;;;;53.53;27.70;;;;;;;3.70;89.13;101667.86;1786884;80;21020;-75
2021/12/14 00:41:47;;;;;;;58.07;28.63;;;;;;;3.67;89.19;101664.80;1787113;80;20981;-75
2021/12/14 00:44:14;;;;;;;51.63;27.93;;;;;;;3.67;89.38;101666.09;1787094;80;21118;-75
2021/12/14 00:46:42;;;;;;;52.37;25.67;;;;;;;3.70;89.53;101670.45;1787006;80;21112;-82
2021/12/14 00:49:12;;;;;;;44.27;22.07;;;;;;;3.71;89.50;101675.64;1786861;80;21015;-75
2021/12/14 00:51:40;;;;;;;41.33;22.48;;;;;;;3.75;89.51;101677.43;1787132;80;20976;-75
2021/12/14 00:54:12;;;;;;;41.40;23.20;;;;;;;3.82;89.55;101681.38;1787253;80;21024;-75
2021/12/14 00:56:41;;;;;;;48.57;26.50;;;;;;;3.84;89.52;101673.20;1786960;80;21253;-75
2021/12/14 00:59:13;;;;;;;54.63;29.57;;;;;;;3.87;89.60;101673.23;1787255;80;21094;-76
2021/12/14 01:01:47;;;;;;;49.40;27.03;;;;;;;3.91;89.48;101668.53;1787059;80;20892;-75
2021/12/14 01:04:20;;;;;;;50.00;27.77;;;;;;;3.89;89.34;101670.23;1787489;80;21005;-75
2021/12/14 01:06:47;;;;;;;54.17;30.80;;;;;;;3.92;89.35;101674.16;1786646;80;21047;-75
2021/12/14 01:09:20;;;;;;;53.30;30.13;;;;;;;3.93;89.59;101668.97;1787205;80;21083;-75
2021/12/14 01:11:49;;;;;;;52.83;30.77;;;;;;;3.94;89.61;101672.02;1786962;80;22062;-75
2021/12/14 01:14:32;;;;;;;54.10;30.93;;;;;;;3.94;89.66;101666.84;1787296;80;20992;-76
2021/12/14 01:17:11;;;;;;;53.47;28.90;;;;;;;3.95;89.54;101667.70;1811295;78;21476;-75
2021/12/14 01:19:38;;;;;;;48.13;25.50;;;;;;;3.93;89.30;101666.80;1819084;78;21028;-76
2021/12/14 01:22:39;;;;;;;46.20;26.05;;;;;;;3.91;89.18;101664.64;1819410;78;21039;-75
2021/12/14 01:25:18;;;;;;;44.17;23.77;;;;;;;3.88;89.00;101663.28;1818654;78;21103;-75
2021/12/14 01:27:56;;;;;;;49.50;24.87;;;;;;;3.83;88.99;101658.50;1819007;78;21530;-75
2021/12/14 01:31:08;;;;;;;42.80;23.57;;;;;;;3.82;89.01;101659.34;1819419;78;20984;-75
2021/12/14 01:33:24;;;;;;;42.57;24.03;;;;;;;3.79;89.07;101651.95;1755313;81;21046;-78
2021/12/14 01:35:53;;;;;;;46.92;24.72;;;;;;;3.77;89.05;101659.31;1760207;81;21055;-74
2021/12/14 01:41:11;;;;;;;46.77;26.43;;;;;;;3.79;89.44;101663.63;1760082;81;20943;-74
2021/12/14 01:43:57;;;;;;;49.13;26.00;;;;;;;3.80;89.61;101661.93;1759727;81;21027;-75
2021/12/14 01:46:40;;;;;;;52.37;27.50;;;;;;;3.84;89.67;101665.42;1760209;81;21035;-79
2021/12/14 01:49:18;;;;;;;48.53;26.57;;;;;;;3.83;89.65;101669.75;1739092;81;21003;-75
2021/12/14 01:51:51;;;;;;;47.60;24.23;;;;;;;3.85;89.62;101669.74;1759114;81;21184;-78
2021/12/14 01:54:31;;;;;;;48.23;24.77;;;;;;;3.85;89.50;101669.31;1759727;81;21094;-74
2021/12/14 01:57:03;;;;;;;48.43;25.33;;;;;;;3.87;89.48;101674.09;1759999;81;21509;-81
2021/12/14 01:59:36;;;;;;;48.70;24.77;;;;;;;3.89;89.46;101671.53;1759827;81;21587;-75
2021/12/14 02:02:21;;;;;;;48.93;25.27;;;;;;;3.90;89.54;101670.23;1760177;81;21055;-74
2021/12/14 02:04:44;;;;;;;46.87;25.43;;;;;;;3.94;89.63;101675.05;1758012;81;21127;-75
2021/12/14 02:07:14;;;;;;;47.80;25.10;;;;;;;3.98;89.64;101676.38;1759711;81;21084;-73
2021/12/14 02:09:46;;;;;;;45.40;24.90;;;;;;;3.98;89.48;101676.38;1802542;78;21012;-74
2021/12/14 02:12:18;;;;;;;47.88;26.15;;;;;;;3.97;89.54;101668.59;1825098;78;20980;-74
2021/12/14 02:14:48;;;;;;;48.57;26.13;;;;;;;3.98;89.62;101674.22;1824435;78;21024;-74
2021/12/14 02:17:20;;;;;;;47.70;27.00;;;;;;;3.96;89.64;101674.22;1824655;78;21079;-74
2021/12/14 02:19:49;;;;;;;46.70;24.20;;;;;;;3.96;89.71;101669.03;1824543;78;21004;-74
2021/12/14 02:22:16;;;;;;;46.40;24.93;;;;;;;3.96;89.49;101672.92;1817300;78;21007;-82
2021/12/14 02:24:48;;;;;;;51.67;27.17;;;;;;;3.96;89.38;101667.73;1792105;80;20995;-74
2021/12/14 02:27:15;;;;;;;49.10;24.87;;;;;;;3.96;89.22;101669.42;1792463;80;21262;-74
2021/12/14 02:29:49;;;;;;;48.70;25.37;;;;;;;3.92;89.18;101659.89;1791890;80;21116;-74
2021/12/14 02:32:21;;;;;;;43.10;23.57;;;;;;;3.91;89.18;101663.35;1791009;80;20929;-74
2021/12/14 02:34:53;;;;;;;39.83;23.80;;;;;;;3.93;89.27;101662.91;1789239;80;20999;-75
2021/12/14 02:37:26;;;;;;;45.77;23.53;;;;;;;3.91;89.21;101661.62;1788505;80;21044;-74
2021/12/14 02:40:03;;;;;;;47.27;26.23;;;;;;;3.91;89.30;101664.22;1729719;80;21001;-75
2021/12/14 02:42:32;;;;;;;48.87;26.33;;;;;;;3.92;89.41;101656.86;1789429;80;21013;-75
2021/12/14 02:45:00;;;;;;;51.20;27.17;;;;;;;3.89;89.43;101654.67;1789231;80;21007;-82
2021/12/14 02:47:28;;;;;;;47.60;26.77;;;;;;;3.88;89.48;101655.50;1789438;80;21525;-75
2021/12/14 02:49:55;;;;;;;44.47;24.47;;;;;;;3.88;89.52;101655.50;1789289;80;21034;-74
2021/12/14 02:52:37;;;;;;;46.00;24.73;;;;;;;3.90;89.58;101653.81;1789474;80;21351;-74
2021/12/14 02:55:18;;;;;;;44.13;24.90;;;;;;;3.92;89.46;101652.97;1789060;80;21114;-75
2021/12/14 02:57:53;;;;;;;46.87;23.87;;;;;;;3.92;89.42;101646.48;1789464;80;21474;-75
2021/12/14 03:00:25;;;;;;;39.43;21.80;;;;;;;3.93;89.39;101648.65;1789263;80;21469;-78
2021/12/14 03:02:56;;;;;;;40.10;21.57;;;;;;;3.91;89.24;101647.35;1789105;80;21619;-75
2021/12/14 03:05:32;;;;;;;41.17;22.63;;;;;;;3.92;89.44;101649.08;1789308;80;21512;-79
2021/12/14 03:08:22;;;;;;;43.97;22.80;;;;;;;3.95;89.63;101645.65;1788962;80;21098;-75
2021/12/14 03:11:10;;;;;;;43.25;22.80;;;;;;;3.99;89.64;101650.00;1789255;80;21007;-75
2021/12/14 03:13:34;;;;;;;57.27;28.75;;;;;;;3.99;89.62;101653.89;1787731;80;21448;-75
2021/12/14 03:16:06;;;;;;;65.63;35.97;;;;;;;3.96;89.59;101646.08;1789631;80;20985;-74
2021/12/14 03:18:39;;;;;;;64.53;34.73;;;;;;;3.96;89.66;101647.37;1789056;80;20992;-75
2021/12/14 03:21:17;;;;;;;68.63;38.90;;;;;;;3.96;89.81;101648.27;1789679;80;21085;-76
2021/12/14 03:23:53;;;;;;;66.33;36.00;;;;;;;3.98;89.94;101642.65;1788294;80;21058;-74
2021/12/14 03:26:25;;;;;;;63.30;36.07;;;;;;;4.01;89.89;101639.22;1788159;80;21878;-73
2021/12/14 03:28:57;;;;;;;97.50;52.07;;;;;;;4.03;89.60;101642.27;1789326;80;21075;-74
2021/12/14 03:31:35;;;;;;;76.63;40.70;;;;;;;4.04;89.54;101634.05;1789798;80;21018;-74
2021/12/14 03:34:10;;;;;;;108.70;57.10;;;;;;;4.03;89.50;101635.79;1789299;80;21176;-74
2021/12/14 03:36:42;;;;;;;178.80;100.10;;;;;;;4.04;89.46;101635.35;1788399;80;21004;-78
2021/12/14 03:39:26;;;;;;;100.03;52.27;;;;;;;4.07;89.62;101636.67;1788095;80;20992;-82
2021/12/14 03:42:01;;;;;;;54.13;31.90;;;;;;;4.10;89.59;101633.24;1788718;80;20961;-74
2021/12/14 03:44:37;;;;;;;45.77;26.67;;;;;;;4.11;89.59;101633.27;1789360;80;21054;-75
2021/12/14 03:47:09;;;;;;;40.57;23.87;;;;;;;4.11;89.72;101632.41;1789007;80;22011;-74
2021/12/14 03:49:42;;;;;;;40.43;22.00;;;;;;;4.12;89.74;101634.13;1789162;80;20905;-75
2021/12/14 03:52:13;;;;;;;41.13;21.87;;;;;;;4.10;89.53;101635.44;1789644;80;20996;-81
2021/12/14 03:54:42;;;;;;;42.93;22.57;;;;;;;4.07;89.44;101634.52;1789420;80;21055;-74
2021/12/14 03:57:10;;;;;;;36.03;20.97;;;;;;;4.05;89.53;101634.52;1789462;80;21033;-74
2021/12/14 03:59:39;;;;;;;34.80;20.10;;;;;;;4.04;89.45;101636.65;1789230;80;21079;-74
2021/12/14 04:02:11;;;;;;;34.73;20.43;;;;;;;4.06;89.45;101630.20;1789479;80;21000;-74
2021/12/14 04:04:45;;;;;;;36.00;20.50;;;;;;;4.08;89.46;101629.36;1789255;80;21258;-74
2021/12/14 04:07:15;;;;;;;34.93;20.17;;;;;;;4.10;89.61;101628.95;1789377;80;21051;-74
2021/12/14 04:09:44;;;;;;;37.20;20.37;;;;;;;4.10;89.47;101626.36;1789130;80;20983;-73
2021/12/14 04:12:16;;;;;;;39.80;21.20;;;;;;;4.10;89.56;101623.77;1789289;80;22233;-74
2021/12/14 04:14:49;;;;;;;34.63;21.07;;;;;;;4.12;89.67;101619.43;1789418;80;21451;-73
2021/12/14 04:17:18;;;;;;;35.27;20.03;;;;;;;4.13;89.70;101616.41;1789288;80;21020;-74
2021/12/14 04:19:46;;;;;;;40.77;20.93;;;;;;;4.16;89.78;101608.67;1789218;80;21016;-74
2021/12/14 04:22:24;;;;;;;43.40;27.80;;;;;;;4.17;89.83;101609.97;1789425;80;21000;-74
2021/12/14 04:24:57;;;;;;;43.20;23.47;;;;;;;4.16;89.82;101605.64;1787637;80;21105;-74
2021/12/14 04:27:28;;;;;;;42.37;22.83;;;;;;;4.17;89.96;101601.31;1789199;80;20973;-74
2021/12/14 04:30:03;;;;;;;40.30;21.00;;;;;;;4.17;89.92;101602.18;1789560;80;21001;-74
2021/12/14 04:32:32;;;;;;;34.10;19.77;;;;;;;4.17;89.60;101603.91;1788746;80;20992;-74
2021/12/14 04:35:00;;;;;;;34.93;20.70;;;;;;;4.16;89.52;101605.64;1789373;80;21486;-80
2021/12/14 04:37:27;;;;;;;41.20;21.03;;;;;;;4.13;89.49;101600.84;1789164;80;21114;-75
2021/12/14 04:40:14;;;;;;;39.50;21.57;;;;;;;4.13;89.47;101600.84;1789272;80;21015;-74
2021/12/14 04:53:52;;;;;;;37.15;21.33;;;;;;;4.14;89.81;101598.70;1760587;80;21477;-76
2021/12/14 04:56:29;;;;;;;38.50;21.70;;;;;;;4.15;89.92;101593.94;1789319;80;20992;-74
2021/12/14 04:59:05;;;;;;;41.63;23.67;;;;;;;4.14;90.04;101585.73;1789322;80;21015;-75
2021/12/14 05:01:37;;;;;;;39.23;21.50;;;;;;;4.15;89.90;101588.75;1789387;80;21500;-76
2021/12/14 05:04:09;;;;;;;41.17;21.80;;;;;;;4.14;89.72;101598.27;1789181;80;21100;-82
2021/12/14 05:06:52;;;;;;;39.00;21.60;;;;;;;4.14;89.62;101600.86;1789615;80;21007;-75
2021/12/14 05:09:30;;;;;;;38.47;21.20;;;;;;;4.12;89.45;101599.97;1789429;80;21028;-76
2021/12/14 05:12:10;;;;;;;38.47;20.80;;;;;;;4.15;89.60;101593.50;1786935;80;21549;-80
2021/12/14 05:14:42;;;;;;;40.05;21.68;;;;;;;4.16;89.58;101583.59;1787895;80;26525;-75
2021/12/14 05:17:18;;;;;;;39.23;21.40;;;;;;;4.14;89.38;101588.32;1789184;80;21461;-75
2021/12/14 05:19:48;;;;;;;39.93;21.43;;;;;;;4.12;89.39;101589.59;1789229;80;21083;-75
2021/12/14 05:22:30;;;;;;;44.35;22.17;;;;;;;4.13;89.61;101590.45;1789636;80;21027;-75
2021/12/14 05:25:08;;;;;;;43.87;23.83;;;;;;;4.13;89.70;101590.45;1789228;80;21516;-75
2021/12/14 05:27:43;;;;;;;44.37;23.23;;;;;;;4.11;89.70;101581.81;1789423;80;21548;-74
2021/12/14 05:30:19;;;;;;;40.43;21.63;;;;;;;4.08;89.60;101580.49;1760633;80;21056;-76
2021/12/14 05:33:01;;;;;;;37.13;20.23;;;;;;;4.08;89.62;101585.25;1788261;80;21024;-75
2021/12/14 05:35:29;;;;;;;40.30;20.30;;;;;;;4.08;89.52;101572.71;1788810;80;21019;-76
2021/12/14 05:37:57;;;;;;;39.83;20.67;;;;;;;4.05;89.40;101567.06;1789265;80;21023;-74
2021/12/14 05:43:08;;;;;;;34.20;19.10;;;;;;;3.99;89.35;101568.28;1789319;80;21145;-74
2021/12/14 05:45:54;;;;;;;34.20;18.80;;;;;;;4.02;89.67;101571.80;1774447;80;21015;-75
2021/12/14 05:48:29;;;;;;;30.60;18.93;;;;;;;4.02;89.56;101567.91;1789344;80;21047;-75
2021/12/14 05:51:08;;;;;;;37.20;19.93;;;;;;;4.02;89.52;101573.53;1789182;80;21015;-76
2021/12/14 05:53:45;;;;;;;34.87;18.97;;;;;;;4.00;89.39;101579.98;1789154;80;20984;-75
2021/12/14 05:56:19;;;;;;;35.43;19.30;;;;;;;3.95;89.51;101564.80;1789159;80;21096;-74
2021/12/14 05:58:48;;;;;;;38.37;21.47;;;;;;;3.96;89.83;101570.85;1789251;80;20965;-75
2021/12/14 06:01:21;;;;;;;42.57;21.53;;;;;;;3.96;89.98;101562.67;1789179;80;21458;-78
2021/12/14 06:03:59;;;;;;;44.03;20.67;;;;;;;3.97;90.16;101569.59;1789413;80;21493;-75
2021/12/14 06:06:32;;;;;;;35.67;19.60;;;;;;;4.01;90.20;101560.95;1789243;80;21312;-75
2021/12/14 06:09:23;;;;;;;35.70;19.97;;;;;;;4.03;89.96;101566.17;1789415;80;21088;-75
2021/12/14 06:12:02;;;;;;;32.93;18.57;;;;;;;4.05;90.03;101565.77;1780997;80;21004;-75
2021/12/14 06:14:31;;;;;;;34.93;19.60;;;;;;;4.08;89.99;101569.68;1789465;80;21039;-81
2021/12/14 06:17:02;;;;;;;35.40;20.27;;;;;;;4.09;89.72;101576.59;1789294;80;21003;-75
2021/12/14 06:19:37;;;;;;;35.23;18.67;;;;;;;4.07;89.80;101573.55;1789157;80;20976;-76
2021/12/14 06:22:19;;;;;;;34.07;18.03;;;;;;;4.10;89.96;101586.54;1789462;80;21184;-75
2021/12/14 06:24:52;;;;;;;35.37;18.80;;;;;;;4.12;89.87;101583.54;1789362;80;21485;-75
2021/12/14 06:27:24;;;;;;;37.43;19.87;;;;;;;4.15;90.07;101577.08;1789038;80;21007;-76
2021/12/14 06:29:59;;;;;;;37.40;21.87;;;;;;;4.17;90.13;101573.64;1789663;80;21054;-75
2021/12/14 06:32:31;;;;;;;33.27;21.27;;;;;;;4.20;90.30;101569.77;1760613;80;21070;-78
2021/12/14 06:35:07;;;;;;;220.70;127.80;;;;;;;4.21;90.16;101568.93;1789140;80;21553;-78
2021/12/14 06:38:11;;;;;;;363.03;208.67;;;;;;;4.21;90.14;101563.73;1789197;80;21036;-80
2021/12/14 06:40:30;;;;;;;248.73;128.37;;;;;;;4.18;89.88;101556.34;1782019;80;21043;-75
2021/12/14 06:43:02;;;;;;;86.57;45.70;;;;;;;4.16;89.64;101562.83;1789185;80;21028;-76
2021/12/14 06:45:37;;;;;;;183.67;112.63;;;;;;;4.12;89.61;101554.56;1788586;80;20976;-76
2021/12/14 06:48:19;;;;;;;132.80;84.07;;;;;;;4.13;89.90;101555.02;1789159;80;21113;-77
2021/12/14 06:50:52;;;;;;;187.57;115.35;;;;;;;4.15;90.01;101553.28;1789100;80;21027;-79
2021/12/14 06:53:28;;;;;;;257.43;160.30;;;;;;;4.18;90.07;101545.52;1787554;80;21004;-75
2021/12/14 06:56:11;;;;;;;265.67;161.57;;;;;;;4.19;89.94;101546.42;1696817;84;21018;-75
2021/12/14 06:59:03;;;;;;;280.53;170.13;;;;;;;4.23;90.17;101545.56;1763707;80;20996;-75
2021/12/14 07:01:39;;;;;;;233.33;148.60;;;;;;;4.20;90.02;101554.20;1786957;80;21104;-80
2021/12/14 07:04:14;;;;;;;127.97;80.60;;;;;;;4.21;90.38;101545.97;1760488;80;21015;-80
2021/12/14 07:06:55;;;;;;;103.17;62.77;;;;;;;4.22;90.46;101548.59;1789719;80;20972;-75
2021/12/14 07:09:28;;;;;;;57.03;30.30;;;;;;;4.24;90.46;101557.70;1789392;80;21003;-76
2021/12/14 07:12:09;;;;;;;50.10;28.77;;;;;;;4.25;90.29;101552.51;1789555;80;21026;-75
2021/12/14 07:14:47;;;;;;;47.97;27.87;;;;;;;4.26;90.23;101548.18;1789432;80;21098;-76
2021/12/14 07:17:19;;;;;;;65.97;34.80;;;;;;;4.32;90.43;101551.25;1790918;78;20911;-78
2021/12/14 07:20:04;;;;;;;51.10;29.23;;;;;;;4.34;90.19;101559.92;1821036;78;21023;-78
2021/12/14 07:22:44;;;;;;;46.70;25.67;;;;;;;4.35;90.19;101560.35;1821371;78;21302;-77
2021/12/14 07:25:16;;;;;;;39.13;21.75;;;;;;;4.37;90.25;101567.73;1821595;78;21012;-76
2021/12/14 07:27:49;;;;;;;44.47;23.17;;;;;;;4.37;90.09;101570.33;1821293;78;21092;-76
2021/12/14 07:30:45;;;;;;;40.67;22.13;;;;;;;4.37;90.24;101572.48;1821595;78;21036;-75
2021/12/14 07:33:23;;;;;;;41.60;21.70;;;;;;;4.36;90.24;101575.09;1818095;78;20984;-76
2021/12/14 07:36:03;;;;;;;41.33;22.87;;;;;;;4.36;90.26;101585.03;1789416;80;21007;-87
2021/12/14 07:38:52;;;;;;;;;;;;;;;4.36;90.44;101586.33;1792525;80;21284;-83
2021/12/14 07:41:39;;;;;;;43.30;21.70;;;;;;;4.38;90.37;101588.92;1789697;80;21018;-83
2021/12/14 07:44:27;;;;;;;38.07;20.23;;;;;;;4.41;90.44;101591.57;1789847;80;21027;-81
2021/12/14 07:47:11;;;;;;;36.80;19.73;;;;;;;4.43;90.46;101593.33;1789522;80;21026;-83
2021/12/14 07:49:54;;;;;;;67.13;32.47;;;;;;;4.49;90.72;101592.50;1789811;80;21014;-87
2021/12/14 07:52:36;;;;;;;82.50;43.03;;;;;;;4.55;90.75;101586.48;1789515;80;21070;-85
2021/12/14 07:55:19;;;;;;;50.63;25.90;;;;;;;4.54;90.42;101589.91;1789963;80;21081;-84
2021/12/14 07:57:48;;;;;;;50.30;27.00;;;;;;;4.49;90.16;101589.91;1789488;80;20984;-81
2021/12/14 08:00:23;;;;;;;113.57;51.13;;;;;;;4.50;90.20;101586.87;1789769;80;21039;-78
2021/12/14 08:02:55;;;;;;;79.73;41.17;;;;;;;4.51;90.35;101594.65;1789608;80;21558;-82
2021/12/14 08:05:41;;;;;;;64.57;36.00;;;;;;;4.53;90.54;101592.08;1789864;80;21256;-79
2021/12/14 08:08:18;;;;;;;67.07;31.77;;;;;;;4.54;90.71;101590.77;1789582;80;21484;-81
2021/12/14 08:11:08;;;;;;;53.93;30.73;;;;;;;4.58;90.73;101587.80;1789480;80;21002;-79
2021/12/14 08:13:25;;;;;;;55.13;29.40;;;;;;;4.61;90.75;101591.70;1788161;80;21043;-79
2021/12/14 08:15:59;;;;;;;86.30;44.47;;;;;;;4.66;90.74;101592.61;1772094;80;21038;-76
2021/12/14 08:18:31;;;;;;;89.10;45.07;;;;;;;4.68;90.46;101594.36;1759349;80;21347;-77
2021/12/14 08:21:06;;;;;;;173.67;88.90;;;;;;;4.69;90.35;101600.41;1758555;81;21055;-78
2021/12/14 08:23:44;;;;;;;146.60;83.33;;;;;;;4.69;90.19;101592.19;1758325;81;21067;-77
2021/12/14 08:26:16;;;;;;;62.10;36.23;;;;;;;4.68;89.90;101591.76;1757377;81;21509;-79
2021/12/14 08:29:00;;;;;;;59.07;33.77;;;;;;;4.62;89.86;101589.09;1758667;81;21049;-77
2021/12/14 08:31:45;;;;;;;84.53;45.73;;;;;;;4.63;90.15;101585.66;1760314;80;21034;-77
2021/12/14 08:34:23;;;;;;;84.33;46.87;;;;;;;4.63;90.33;101581.77;1758554;80;21168;-79
2021/12/14 08:36:55;;;;;;;68.87;37.70;;;;;;;4.65;90.42;101578.73;1777744;80;21574;-79
2021/12/14 08:39:29;;;;;;;57.67;31.40;;;;;;;4.65;90.52;101575.27;1779834;80;20985;-81
2021/12/14 08:42:16;;;;;;;41.30;23.33;;;;;;;4.68;90.43;101576.17;1785588;80;21533;-81
2021/12/14 08:44:53;;;;;;;43.40;25.07;;;;;;;4.73;90.52;101573.59;1772739;80;21032;-80
2021/12/14 08:47:33;;;;;;;69.57;42.10;;;;;;;4.78;90.66;101578.38;1755723;81;21979;-83
2021/12/14 08:50:06;;;;;;;86.20;48.90;;;;;;;4.80;90.42;101570.17;1754477;81;21012;-80
2021/12/14 08:52:34;;;;;;;69.07;39.13;;;;;;;4.82;90.47;101574.96;1740857;81;21076;-78
2021/12/14 08:55:05;;;;;;;75.20;41.97;;;;;;;4.86;90.43;101566.74;1740474;81;21540;-78
2021/12/14 08:57:32;;;;;;;63.13;36.07;;;;;;;4.86;90.21;101568.91;1754180;81;21000;-79
2021/12/14 09:00:16;;;;;;;80.97;45.90;;;;;;;4.88;90.23;101569.79;1751300;81;21120;-80
2021/12/14 09:02:45;;;;;;;65.10;34.47;;;;;;;4.91;90.41;101572.40;1755979;81;20984;-83
2021/12/14 09:05:18;;;;;;;56.10;31.40;;;;;;;5.00;90.48;101586.30;1784821;80;21023;-81
2021/12/14 09:07:45;;;;;;;56.20;31.77;;;;;;;5.02;90.55;101572.45;1783979;80;21016;-81
2021/12/14 09:10:17;;;;;;;51.70;30.97;;;;;;;5.04;90.46;101578.94;1784356;80;21071;-78
2021/12/14 09:12:47;;;;;;;61.57;33.97;;;;;;;5.05;90.55;101571.16;1743827;81;21133;-84
2021/12/14 09:15:23;;;;;;;46.53;25.40;;;;;;;5.05;90.44;101577.66;1754372;81;21526;-84
2021/12/14 09:17:52;;;;;;;52.07;30.33;;;;;;;5.06;90.26;101579.82;1748055;81;21072;-79
2021/12/14 09:20:30;;;;;;;49.03;26.23;;;;;;;5.02;90.12;101584.58;1742797;81;21036;-79
2021/12/14 09:23:05;;;;;;;50.50;27.97;;;;;;;4.96;89.78;101575.44;1743242;81;21319;-76
2021/12/14 09:25:33;;;;;;;49.77;27.60;;;;;;;4.96;89.74;101576.33;1779858;80;21059;-80
2021/12/14 09:28:02;;;;;;;51.10;29.63;;;;;;;4.93;89.71;101572.39;1779530;80;21533;-78
2021/12/14 09:30:35;;;;;;;49.23;28.50;;;;;;;4.95;89.80;101578.91;1753198;81;21116;-78
2021/12/14 09:33:03;;;;;;;50.03;28.07;;;;;;;4.94;89.85;101581.94;1741524;81;21004;-78
2021/12/14 09:35:35;;;;;;;50.77;29.13;;;;;;;5.00;90.23;101582.40;1701435;82;21590;-79
2021/12/14 09:38:06;;;;;;;42.77;25.17;;;;;;;5.06;90.38;101580.69;1694613;84;21461;-79
2021/12/14 09:40:41;;;;;;;46.53;26.80;;;;;;;5.09;90.18;101579.39;1694664;84;21078;-75
2021/12/14 09:43:10;;;;;;;38.93;22.57;;;;;;;5.11;90.33;101575.08;1694314;84;21035;-76
2021/12/14 09:45:44;;;;;;;40.03;22.77;;;;;;;5.12;90.38;101565.55;1706123;84;21030;-76
2021/12/14 09:48:16;;;;;;;38.10;23.27;;;;;;;5.16;90.50;101569.91;1755108;81;21087;-77
2021/12/14 09:50:46;;;;;;;31.77;17.53;;;;;;;5.18;90.46;101564.70;1751748;80;21090;-75
2021/12/14 09:53:18;;;;;;;23.00;12.83;;;;;;;5.29;90.80;101569.10;1750986;80;21486;-75
2021/12/14 09:55:49;;;;;;;20.53;11.30;;;;;;;5.43;91.01;101573.05;1750329;82;21042;-75
2021/12/14 09:58:21;;;;;;;18.20;10.10;;;;;;;5.56;91.36;101576.09;1750080;82;21040;-76
2021/12/14 10:00:59;;;;;;;16.40;9.77;;;;;;;5.69;91.59;101577.44;1749283;81;21080;-77
2021/12/14 10:03:27;;;;;;;12.40;7.97;;;;;;;5.80;91.65;101575.28;1749793;80;21129;-76
2021/12/14 10:05:59;;;;;;;13.53;8.63;;;;;;;5.92;91.60;101572.25;1752363;80;22056;-76
2021/12/14 10:08:33;;;;;;;15.50;10.47;;;;;;;5.98;91.71;101569.24;1706797;84;21051;-76
2021/12/14 10:11:07;;;;;;;12.97;8.60;;;;;;;6.04;91.75;101573.59;1707058;84;21485;-75
2021/12/14 10:13:42;;;;;;;13.07;7.97;;;;;;;6.09;91.66;101568.39;1706757;83;21043;-76
2021/12/14 10:16:10;;;;;;;12.90;8.47;;;;;;;6.17;91.44;101563.61;1706914;83;21180;-76
2021/12/14 10:18:47;;;;;;;12.60;8.80;;;;;;;6.23;91.07;101566.20;1706670;84;21542;-76
2021/12/14 10:21:22;;;;;;;12.93;8.23;;;;;;;6.27;91.08;101567.54;1706859;84;21024;-76
2021/12/14 10:23:51;;;;;;;14.97;10.30;;;;;;;6.28;91.07;101562.75;1706468;83;21017;-74
2021/12/14 10:26:21;;;;;;;13.87;8.53;;;;;;;6.30;91.29;101558.42;1706981;84;21008;-76
2021/12/14 10:28:53;;;;;;;12.37;7.37;;;;;;;6.31;91.20;101557.09;1707039;84;21097;-77
2021/12/14 10:31:33;;;;;;;12.67;7.57;;;;;;;6.36;90.91;101563.17;1706766;84;21805;-75
2021/12/14 10:34:04;;;;;;;10.72;6.37;;;;;;;6.40;90.72;101553.20;1708551;80;21803;-78
2021/12/14 10:36:40;;;;;;;13.00;7.00;;;;;;;6.40;90.62;101549.30;1724853;83;21494;-77
2021/12/14 10:44:26;;;;;;;10.47;6.90;;;;;;;6.41;90.79;101541.91;1751798;82;21027;-72
2021/12/14 10:46:55;;;;;;;9.28;5.95;;;;;;;6.42;90.81;101551.44;1751622;82;21028;-74
2021/12/14 10:49:25;;;;;;;9.47;6.30;;;;;;;6.46;90.65;101549.72;1751747;81;21028;-74
2021/12/14 10:52:00;;;;;;;8.85;5.37;;;;;;;6.49;90.43;101543.20;1751638;82;23896;-73
2021/12/14 10:54:28;;;;;;;8.93;5.43;;;;;;;6.50;90.38;101542.77;1751422;82;21129;-73
2021/12/14 10:57:07;;;;;;;9.63;5.63;;;;;;;6.54;90.55;101536.66;1751518;82;21046;-76
2021/12/14 10:59:38;;;;;;;9.20;6.30;;;;;;;6.53;90.51;101541.45;1751799;82;20977;-79
2021/12/14 11:02:07;;;;;;;10.00;6.03;;;;;;;6.51;90.65;101532.32;1751527;82;21008;-73
2021/12/14 11:04:42;;;;;;;15.00;7.70;;;;;;;6.48;90.57;101540.14;1751876;82;20992;-75
2021/12/14 11:07:14;;;;;;;8.30;6.20;;;;;;;6.45;90.55;101538.85;1750564;82;21087;-74
2021/12/14 11:09:45;;;;;;;7.97;5.67;;;;;;;6.50;90.37;101535.80;1751657;82;21028;-74
2021/12/14 11:12:29;;;;;;;8.47;5.60;;;;;;;6.53;90.18;101531.89;1751634;82;21063;-74
2021/12/14 11:15:04;;;;;;;8.10;5.20;;;;;;;6.55;90.14;101533.20;1751881;82;21453;-75
2021/12/14 11:20:32;;;;;;;10.27;6.10;;;;;;;6.58;90.43;101518.87;1751840;82;21106;-73
2021/12/14 11:23:16;;;;;;;18.23;10.67;;;;;;;6.58;90.46;101517.56;1751348;82;21047;-74
2021/12/14 11:26:09;;;;;;;12.13;7.17;;;;;;;6.58;90.46;101521.03;1751640;81;21004;-72
2021/12/14 11:28:48;;;;;;;9.37;5.27;;;;;;;6.57;90.30;101523.22;1750344;82;21521;-72
2021/12/14 11:31:38;;;;;;;9.50;5.53;;;;;;;6.62;89.97;101534.50;1751767;82;21517;-77
2021/12/14 11:34:08;;;;;;;;;;;;;;;6.63;89.77;101527.09;1753374;82;21133;-73
2021/12/14 11:36:46;;;;;;;11.20;5.67;;;;;;;6.64;89.67;101522.75;1747453;82;20210;-74
2021/12/14 11:39:25;;;;;;;11.57;6.17;;;;;;;6.66;89.78;101524.48;1747243;82;21095;-79
2021/12/14 11:42:02;;;;;;;9.47;6.50;;;;;;;6.66;89.82;101519.71;1747793;82;21048;-72
2021/12/14 11:44:36;;;;;;;11.67;7.77;;;;;;;6.68;89.96;101517.98;1747452;82;21071;-73
2021/12/14 11:50:07;;;;;;;23.52;11.08;;;;;;;6.67;89.88;101518.39;1747517;82;20990;-74
2021/12/14 11:53:03;;;;;;;12.13;6.73;;;;;;;6.70;89.60;101509.25;1741231;82;21000;-76
2021/12/14 11:55:55;;;;;;;23.20;10.67;;;;;;;6.73;89.42;101510.98;1746094;82;21289;-77
2021/12/14 11:58:37;;;;;;;24.70;12.97;;;;;;;6.75;89.47;101504.04;1747617;82;21040;-78
2021/12/14 12:01:21;;;;;;;21.30;9.97;;;;;;;6.74;89.44;101506.23;1747404;82;21181;-76
2021/12/14 12:04:20;;;;;;;32.40;16.73;;;;;;;6.73;89.60;101503.17;1747139;82;21427;-75
2021/12/14 12:09:45;;;;;;;27.20;14.60;;;;;;;6.70;89.48;101501.44;1747669;82;21060;-75
2021/12/14 12:12:32;;;;;;;13.40;6.90;;;;;;;6.72;89.30;101503.19;1747400;82;21004;-75
2021/12/14 12:15:15;;;;;;;27.93;14.23;;;;;;;6.74;89.07;101499.71;1747641;82;21102;-74
2021/12/14 12:18:00;;;;;;;25.77;13.67;;;;;;;6.75;89.04;101503.18;1747295;82;21027;-73
2021/12/14 12:20:46;;;;;;;9.60;6.53;;;;;;;6.75;89.32;101494.06;1747296;82;21490;-74
2021/12/14 12:23:18;;;;;;;9.10;6.00;;;;;;;6.77;89.50;101493.63;1747399;82;21485;-75
2021/12/14 12:25:59;;;;;;;13.07;6.77;;;;;;;6.78;89.41;101495.34;1747663;82;21365;-72
2021/12/14 12:28:37;;;;;;;9.00;5.00;;;;;;;6.77;89.40;101484.50;1747100;82;21246;-73